Time;durP1;ratioP1;P1;durP2;ratioP2;P2;SDS_P1;SDS_P2;PMS_P1;PMS_P2;Temp;Humidity;BMP_temperature;BMP_pressure;BME280_temperature;BME280_humidity;BME280_pressure;Samples;Min_cycle;Max_cycle;Signal;HPM_P1;HPM_P2
2022/12/09 00:01:14;;;;;;;21.95;9.18;;;;;;;-3.25;64.20;100484.16;4744771;30;20048;-81
2022/12/09 00:04:01;;;;;;;26.42;9.63;;;;;;;-3.57;63.85;100473.84;4768611;30;20059;-86
2022/12/09 00:06:29;;;;;;;23.30;10.18;;;;;;;-3.55;63.78;100513.00;4771204;30;20045;-86
2022/12/09 00:08:59;;;;;;;18.13;8.85;;;;;;;-3.78;64.30;100451.44;4733106;30;20051;-84
2022/12/09 00:11:28;;;;;;;21.38;10.60;;;;;;;-2.98;64.49;100571.44;4762876;30;20549;-81
2022/12/09 00:13:56;;;;;;;22.60;9.93;;;;;;;-4.17;64.00;100374.53;4764418;30;20106;-82
2022/12/09 00:16:23;;;;;;;25.10;10.27;;;;;;;-3.73;64.51;100423.72;4751729;30;20111;-83
2022/12/09 00:18:50;;;;;;;24.10;9.90;;;;;;;-2.85;63.77;100603.59;4765125;30;20052;-83
2022/12/09 00:21:25;;;;;;;21.27;10.00;;;;;;;-3.63;64.50;100455.66;4751993;30;20058;-81
2022/12/09 00:23:54;;;;;;;24.13;9.88;;;;;;;-3.64;64.14;100459.88;4753286;30;20483;-82
2022/12/09 00:26:22;;;;;;;22.85;10.27;;;;;;;-3.30;64.43;100508.44;4767543;30;20032;-81
2022/12/09 00:28:53;;;;;;;20.92;10.00;;;;;;;-4.19;64.70;100354.88;4744333;30;20064;-81
2022/12/09 00:31:23;;;;;;;21.08;9.80;;;;;;;-3.10;64.39;100527.44;4772043;30;20032;-83
2022/12/09 00:33:55;;;;;;;20.42;9.98;;;;;;;-2.59;64.25;100612.75;4743632;30;20035;-83
2022/12/09 00:36:25;;;;;;;21.92;9.27;;;;;;;-2.56;64.46;100612.06;4745068;30;20104;-84
2022/12/09 00:38:53;;;;;;;20.88;9.77;;;;;;;-3.41;64.42;100464.56;4775122;30;20137;-86
2022/12/09 00:41:20;;;;;;;22.55;9.43;;;;;;;-2.49;64.21;100614.13;4774233;30;20047;-82
2022/12/09 00:43:46;;;;;;;20.95;9.48;;;;;;;-2.98;64.13;100515.41;4744943;30;20040;-82
2022/12/09 00:46:14;;;;;;;23.83;10.50;;;;;;;-3.18;64.01;100482.03;4757586;30;20059;-86
2022/12/09 00:48:41;;;;;;;23.23;10.60;;;;;;;-2.59;64.47;100559.22;4738516;30;20597;-83
2022/12/09 00:51:11;;;;;;;26.95;10.57;;;;;;;-2.78;64.23;100510.56;4745818;30;20051;-82
2022/12/09 00:53:37;;;;;;;26.38;10.15;;;;;;;-2.29;64.27;100607.63;4771540;30;20044;-83
2022/12/09 00:56:05;;;;;;;23.70;10.88;;;;;;;-3.27;64.40;100433.13;4759041;30;20056;-84
2022/12/09 00:58:31;;;;;;;21.42;9.57;;;;;;;-3.10;63.87;100471.44;4773223;30;20155;-82
2022/12/09 01:00:57;;;;;;;21.20;9.82;;;;;;;-3.28;64.25;100436.47;4743862;30;20036;-87
2022/12/09 01:03:24;;;;;;;25.45;10.50;;;;;;;-2.26;64.17;100606.91;4771456;30;20050;-84
2022/12/09 01:05:50;;;;;;;26.05;10.82;;;;;;;-2.33;63.84;100609.94;4731791;30;20048;-82
2022/12/09 01:08:17;;;;;;;27.38;11.27;;;;;;;-3.20;63.67;100480.22;4757174;30;20057;-82
2022/12/09 01:10:45;;;;;;;25.52;10.90;;;;;;;-2.31;64.13;100605.75;4733731;30;20060;-83
2022/12/09 01:13:13;;;;;;;23.23;10.23;;;;;;;-2.95;63.61;100502.84;4745233;30;20063;-85
2022/12/09 01:15:40;;;;;;;22.77;10.50;;;;;;;-2.40;63.91;100597.63;4731002;30;20512;-82
2022/12/09 01:18:07;;;;;;;27.73;11.73;;;;;;;-3.07;63.76;100519.97;4740127;30;20048;-81
2022/12/09 01:20:33;;;;;;;24.10;11.50;;;;;;;-3.19;64.25;100489.56;4766225;30;20052;-82
2022/12/09 01:23:00;;;;;;;25.40;11.02;;;;;;;-2.38;64.14;100619.84;4742265;30;20071;-84
2022/12/09 01:25:26;;;;;;;26.23;11.25;;;;;;;-2.37;64.14;100611.41;4767480;30;20051;-84
2022/12/09 01:27:53;;;;;;;27.02;10.90;;;;;;;-2.68;63.59;100561.25;4761003;30;20162;-84
2022/12/09 01:30:19;;;;;;;22.58;9.82;;;;;;;-2.79;64.21;100547.91;4761869;30;20051;-82
2022/12/09 01:32:46;;;;;;;21.77;10.45;;;;;;;-2.28;64.03;100618.69;4745557;30;20052;-83
2022/12/09 01:35:12;;;;;;;22.25;10.30;;;;;;;-2.96;64.12;100473.06;4744539;30;20048;-82
2022/12/09 01:37:39;;;;;;;26.30;11.32;;;;;;;-2.65;64.20;100528.31;4730725;30;20124;-83
2022/12/09 01:40:11;;;;;;;25.55;11.75;;;;;;;-2.34;64.24;100596.28;4732063;30;20086;-84
2022/12/09 01:42:39;;;;;;;23.42;10.23;;;;;;;-3.72;64.15;100338.09;4728294;30;20044;-81
2022/12/09 01:45:18;;;;;;;22.05;10.77;;;;;;;-2.84;64.16;100484.72;4745043;30;20055;-87
2022/12/09 01:47:56;;;;;;;23.95;11.07;;;;;;;-2.17;64.67;100576.81;4726838;30;20052;-83
2022/12/09 01:50:25;;;;;;;21.85;10.85;;;;;;;-1.99;63.87;100599.03;4727714;30;20052;-88
2022/12/09 01:52:54;;;;;;;22.65;9.70;;;;;;;-3.06;63.95;100417.31;4727634;30;20067;-87
2022/12/09 01:55:22;;;;;;;24.52;10.48;;;;;;;-2.81;63.96;100497.63;4741657;30;20078;-87
2022/12/09 01:57:48;;;;;;;22.63;11.02;;;;;;;-2.36;64.07;100564.72;4744151;30;20052;-83
2022/12/09 02:00:15;;;;;;;26.05;11.40;;;;;;;-2.62;64.16;100484.28;4724072;30;20028;-83
2022/12/09 02:02:47;;;;;;;24.05;11.52;;;;;;;-2.25;64.05;100537.25;4757513;30;20044;-83
2022/12/09 02:05:17;;;;;;;;;;;;;;;-1.88;63.29;100579.19;4740899;30;20131;-83
2022/12/09 02:07:47;;;;;;;22.88;10.80;;;;;;;-2.44;64.21;100500.56;4755317;30;19921;-86
2022/12/09 02:10:16;;;;;;;27.05;10.98;;;;;;;-1.93;63.83;100586.63;4740686;30;20064;-85
2022/12/09 02:13:16;;;;;;;24.60;11.43;;;;;;;-2.80;63.99;100464.63;4726009;30;20044;-86
2022/12/09 02:15:49;;;;;;;27.00;11.63;;;;;;;-2.73;64.38;100453.09;4726887;30;20259;-85
2022/12/09 02:18:22;;;;;;;27.25;10.88;;;;;;;-2.00;63.96;100587.97;4741971;30;20096;-84
2022/12/09 02:20:53;;;;;;;;;;;;;;;-2.06;63.97;100585.06;4731756;30;20052;-84
2022/12/09 02:23:37;;;;;;;30.73;11.40;;;;;;;-2.74;63.70;100482.78;4758987;30;19952;-86
2022/12/09 02:26:29;;;;;;;29.83;12.18;;;;;;;-2.09;63.78;100584.00;4757625;30;20066;-88
2022/12/09 02:29:18;;;;;;;30.73;11.88;;;;;;;-2.04;64.33;100585.13;4733284;30;20103;-85
2022/12/09 02:32:16;;;;;;;26.92;11.50;;;;;;;-2.42;64.00;100521.03;4754369;30;20055;-84
2022/12/09 02:34:53;;;;;;;29.98;12.48;;;;;;;-2.74;63.66;100487.88;4751778;30;20064;-87
2022/12/09 02:37:33;;;;;;;28.17;11.07;;;;;;;-3.20;63.63;100416.56;4776512;30;20048;-82
2022/12/09 02:40:06;;;;;;;28.65;11.23;;;;;;;-2.71;64.04;100494.84;4753715;30;20052;-85
2022/12/09 02:42:39;;;;;;;30.13;13.25;;;;;;;-2.32;64.82;100550.50;4727663;30;20079;-84
2022/12/09 02:45:08;;;;;;;27.10;12.63;;;;;;;-2.48;63.83;100508.84;4741858;30;20052;-86
2022/12/09 02:47:41;;;;;;;33.92;13.77;;;;;;;-3.08;63.72;100429.97;4699803;30;20430;-87
2022/12/09 02:50:16;;;;;;;32.72;13.63;;;;;;;-2.29;64.75;100537.88;4742766;30;20048;-83
2022/12/09 02:52:45;;;;;;;33.28;13.32;;;;;;;-2.96;64.74;100429.78;4727695;30;20134;-82
2022/12/09 02:55:14;;;;;;;35.50;13.48;;;;;;;-2.29;64.59;100532.78;4758963;30;20091;-83
2022/12/09 02:57:40;;;;;;;33.15;13.45;;;;;;;-1.90;64.29;100588.44;4758469;30;20122;-84
2022/12/09 03:00:14;;;;;;;37.28;14.63;;;;;;;-2.18;64.70;100539.38;4747603;30;20083;-84
2022/12/09 03:02:44;;;;;;;33.15;13.38;;;;;;;-2.50;64.51;100484.94;4748473;30;20052;-84
2022/12/09 03:05:35;;;;;;;34.60;14.43;;;;;;;-2.30;64.67;100518.28;4764947;30;20040;-83
2022/12/09 03:08:32;;;;;;;29.77;13.05;;;;;;;-1.99;64.28;100565.88;4743818;30;20048;-81
2022/12/09 03:11:13;;;;;;;36.40;14.00;;;;;;;-1.97;65.07;100560.03;4745357;30;20532;-83
2022/12/09 03:13:43;;;;;;;33.58;12.55;;;;;;;-1.84;64.44;100566.69;4748555;30;20076;-83
2022/12/09 03:16:36;;;;;;;31.40;12.98;;;;;;;-1.89;63.20;100562.13;4736280;30;20067;-85
2022/12/09 03:19:16;;;;;;;33.45;13.25;;;;;;;-1.82;64.76;100575.31;4730705;30;20048;-82
2022/12/09 03:21:46;;;;;;;23.80;11.25;;;;;;;-2.26;63.82;100515.09;4732531;30;20078;-85
2022/12/09 03:24:17;;;;;;;31.92;13.95;;;;;;;-2.11;64.63;100525.25;4733377;30;20111;-84
2022/12/09 03:26:43;;;;;;;32.27;13.40;;;;;;;-2.96;64.86;100370.28;4736056;30;20055;-84
2022/12/09 03:29:16;;;;;;;29.85;12.80;;;;;;;-2.37;64.65;100476.28;4763536;30;20059;-83
2022/12/09 03:31:43;;;;;;;30.42;13.27;;;;;;;-1.76;64.59;100559.44;4731657;30;20063;-85
2022/12/09 03:34:16;;;;;;;28.92;12.82;;;;;;;-2.18;64.78;100493.47;4746055;30;20055;-83
2022/12/09 03:36:45;;;;;;;29.15;12.40;;;;;;;-2.42;64.88;100434.34;4746031;30;20052;-86
2022/12/09 03:39:17;;;;;;;29.92;12.85;;;;;;;-2.72;64.53;100363.13;4733262;30;20426;-84
2022/12/09 03:41:53;;;;;;;31.90;13.00;;;;;;;-2.86;64.77;100331.81;4719076;30;20059;-84
2022/12/09 03:44:42;;;;;;;25.02;11.73;;;;;;;-2.60;64.68;100360.34;4731585;30;20184;-84
2022/12/09 03:47:09;;;;;;;29.95;12.18;;;;;;;-1.64;63.78;100574.50;4747464;30;20058;-87
2022/12/09 03:49:38;;;;;;;34.15;13.57;;;;;;;-1.67;64.00;100561.63;4754963;30;20059;-84
2022/12/09 03:52:14;;;;;;;28.35;12.30;;;;;;;-2.10;63.77;100495.56;4758178;30;20066;-83
2022/12/09 03:54:44;;;;;;;44.30;16.33;;;;;;;-1.94;64.91;100512.53;4739340;30;20059;-84
2022/12/09 03:57:16;;;;;;;31.20;12.75;;;;;;;-1.80;64.63;100528.56;4759253;30;20048;-82
2022/12/09 03:59:51;;;;;;;30.52;13.23;;;;;;;-1.56;64.81;100573.25;4728435;30;20078;-82
2022/12/09 04:02:17;;;;;;;29.35;12.80;;;;;;;-2.09;64.83;100471.78;4739285;30;20059;-85
2022/12/09 04:04:44;;;;;;;27.55;12.85;;;;;;;-2.36;64.85;100444.91;4744324;30;20059;-83
2022/12/09 04:07:10;;;;;;;32.45;14.00;;;;;;;-2.20;64.08;100482.28;4769405;30;20106;-83
2022/12/09 04:09:40;;;;;;;34.70;14.35;;;;;;;-2.48;64.74;100434.91;4718824;30;20131;-82
2022/12/09 04:12:07;;;;;;;32.45;12.70;;;;;;;-2.24;64.32;100472.72;4761030;30;20043;-83
2022/12/09 04:14:34;;;;;;;32.58;14.00;;;;;;;-2.70;64.20;100388.69;4758885;30;20056;-85
2022/12/09 04:17:00;;;;;;;34.83;14.35;;;;;;;-2.13;64.79;100484.38;4772256;30;20514;-85
2022/12/09 04:19:26;;;;;;;36.00;12.98;;;;;;;-1.95;64.44;100544.84;4728993;30;20043;-85
2022/12/09 04:21:52;;;;;;;34.20;14.02;;;;;;;-2.26;64.04;100499.81;4775010;30;20040;-82
2022/12/09 04:24:18;;;;;;;33.80;14.52;;;;;;;-2.88;64.76;100400.53;4745422;30;20074;-85
2022/12/09 04:26:45;;;;;;;40.80;14.63;;;;;;;-2.66;65.21;100411.88;4759562;30;20108;-87
2022/12/09 04:29:11;;;;;;;37.08;14.63;;;;;;;-1.88;65.51;100553.69;4753177;30;20039;-81
2022/12/09 04:31:40;;;;;;;45.10;18.75;;;;;;;-2.83;65.23;100388.03;4764882;30;20125;-87
2022/12/09 04:34:06;;;;;;;39.97;16.23;;;;;;;-3.23;65.25;100333.22;4757031;30;20051;-84
2022/12/09 04:36:33;;;;;;;42.47;16.70;;;;;;;-3.40;64.84;100294.09;4756353;30;20192;-85
2022/12/09 04:41:53;;;;;;;40.05;15.38;;;;;;;-2.69;65.28;100470.31;4741862;30;20498;-87
2022/12/09 04:44:19;;;;;;;34.70;14.80;;;;;;;-2.83;65.66;100402.41;4742432;30;20040;-85
2022/12/09 04:46:46;;;;;;;35.10;15.35;;;;;;;-1.83;65.48;100542.91;4744777;30;20087;-85
2022/12/09 04:49:12;;;;;;;44.05;16.23;;;;;;;-2.85;64.82;100389.59;4776794;30;20044;-83
2022/12/09 04:51:38;;;;;;;37.20;16.02;;;;;;;-2.48;65.19;100442.56;4772493;30;20047;-86
2022/12/09 04:54:14;;;;;;;35.03;15.20;;;;;;;-3.30;65.43;100320.06;4755716;30;20047;-84
2022/12/09 04:56:47;;;;;;;38.03;14.95;;;;;;;-2.12;64.92;100536.25;4741634;30;20040;-88
2022/12/09 04:59:17;;;;;;;37.88;15.50;;;;;;;-2.59;65.44;100436.88;4755195;30;20040;-85
2022/12/09 05:01:49;;;;;;;35.58;14.82;;;;;;;-3.60;64.83;100274.31;4756146;30;20040;-84
2022/12/09 05:04:27;;;;;;;34.08;14.63;;;;;;;-3.63;64.73;100295.38;4771656;30;20059;-86
2022/12/09 05:06:56;;;;;;;39.95;15.60;;;;;;;-2.19;65.24;100557.13;4743536;30;20043;-83
2022/12/09 05:09:38;;;;;;;34.38;14.93;;;;;;;-2.49;65.57;100481.59;4749756;30;20048;-85
2022/12/09 05:12:31;;;;;;;36.83;14.93;;;;;;;-2.52;65.29;100498.41;4776980;30;20058;-84
2022/12/09 05:15:00;;;;;;;40.33;15.40;;;;;;;-2.40;66.27;100491.41;4756448;30;20408;-86
2022/12/09 05:17:27;;;;;;;39.47;15.90;;;;;;;-2.07;65.11;100556.91;4772135;30;20391;-84
2022/12/09 05:19:56;;;;;;;37.53;15.63;;;;;;;-2.88;65.35;100405.63;4744506;30;20097;-87
2022/12/09 05:22:31;;;;;;;35.95;15.75;;;;;;;-2.28;65.49;100504.84;4746198;30;20511;-85
2022/12/09 05:25:00;;;;;;;46.60;18.85;;;;;;;-2.22;65.46;100534.88;4759703;30;20047;-86
2022/12/09 05:27:29;;;;;;;39.00;16.42;;;;;;;-3.03;65.76;100423.47;4759334;30;20371;-85
2022/12/09 05:30:06;;;;;;;52.92;21.02;;;;;;;-2.89;65.25;100406.41;4760819;30;20052;-86
2022/12/09 05:32:44;;;;;;;46.00;18.83;;;;;;;-3.54;66.27;100279.75;4774953;30;20051;-83
2022/12/09 05:35:34;;;;;;;48.72;20.42;;;;;;;-3.30;66.03;100315.84;4795471;30;20071;-83
2022/12/09 05:38:07;;;;;;;59.00;24.13;;;;;;;-2.82;66.08;100381.25;4736360;30;20108;-85
2022/12/09 05:40:33;;;;;;;65.25;29.35;;;;;;;-2.98;65.55;100349.84;4759915;30;20051;-82
2022/12/09 05:43:02;;;;;;;98.80;40.03;;;;;;;-2.18;65.87;100467.97;4753429;30;20093;-83
2022/12/09 05:45:58;;;;;;;109.13;42.75;;;;;;;-1.85;65.54;100521.53;4764281;30;20445;-83
2022/12/09 05:48:30;;;;;;;116.53;46.15;;;;;;;-2.83;65.80;100357.44;4776284;30;20052;-84
2022/12/09 05:51:18;;;;;;;140.60;53.72;;;;;;;-2.54;65.58;100396.38;4744963;30;20130;-87
2022/12/09 05:54:30;;;;;;;165.25;63.83;;;;;;;-1.62;65.40;100518.47;4760657;30;20047;-88
2022/12/09 05:57:07;;;;;;;;;;;;;;;;;;;;;
2022/12/09 05:59:47;;;;;;;143.85;51.20;;;;;;;-2.37;65.29;100429.53;4748163;30;20092;-84
2022/12/09 06:02:26;;;;;;;106.80;39.50;;;;;;;-2.66;65.31;100360.03;4751793;30;20119;-85
2022/12/09 06:05:20;;;;;;;55.28;24.65;;;;;;;-2.79;65.39;100344.09;4751452;30;20230;-84
2022/12/09 06:07:55;;;;;;;55.80;22.15;;;;;;;-3.24;65.07;100284.78;4754356;30;20052;-84
2022/12/09 06:10:22;;;;;;;41.15;18.40;;;;;;;-2.70;65.47;100384.47;4747071;30;20610;-83
2022/12/09 06:12:56;;;;;;;32.95;14.73;;;;;;;-2.76;65.53;100369.72;4763016;30;20044;-84
2022/12/09 06:15:26;;;;;;;29.73;13.38;;;;;;;-2.15;65.61;100447.72;4770903;30;20055;-86
2022/12/09 06:18:14;;;;;;;25.30;11.70;;;;;;;-2.73;65.24;100346.09;4758278;30;20040;-85
2022/12/09 06:20:44;;;;;;;29.65;12.20;;;;;;;-3.32;66.20;100258.91;4774723;30;20052;-82
2022/12/09 06:23:13;;;;;;;26.92;13.35;;;;;;;-2.38;65.34;100435.41;4773686;30;20031;-83
2022/12/09 06:25:44;;;;;;;29.25;13.25;;;;;;;-2.70;65.17;100366.63;4768053;30;20048;-85
2022/12/09 06:28:11;;;;;;;27.10;13.05;;;;;;;-2.28;65.35;100460.59;4748440;30;20055;-83
2022/12/09 06:30:40;;;;;;;32.95;13.07;;;;;;;-2.95;65.18;100372.94;4747303;30;20121;-84
2022/12/09 06:33:09;;;;;;;30.05;14.45;;;;;;;-3.22;65.90;100334.13;4749906;30;20111;-85
2022/12/09 06:35:36;;;;;;;23.80;11.95;;;;;;;-2.20;65.41;100489.94;4775268;30;20051;-85
2022/12/09 06:38:08;;;;;;;28.33;12.80;;;;;;;-2.21;65.82;100454.19;4773181;30;20483;-84
2022/12/09 06:40:34;;;;;;;28.45;12.50;;;;;;;-2.42;65.32;100416.50;4744735;30;20046;-83
2022/12/09 06:43:00;;;;;;;27.67;12.57;;;;;;;-2.18;65.87;100434.81;4762234;30;20063;-82
2022/12/09 06:45:27;;;;;;;27.60;12.43;;;;;;;-1.62;65.84;100501.44;4765701;30;20086;-86
2022/12/09 06:47:54;;;;;;;25.83;11.98;;;;;;;-1.58;65.02;100499.97;4777285;30;20043;-84
2022/12/09 06:50:20;;;;;;;23.05;12.30;;;;;;;-2.15;66.00;100404.38;4758480;30;20047;-83
2022/12/09 06:52:46;;;;;;;25.25;12.13;;;;;;;-1.74;65.31;100498.28;4772881;30;20076;-81
2022/12/09 06:55:12;;;;;;;25.52;11.82;;;;;;;-2.03;65.47;100411.78;4775377;30;20513;-80
2022/12/09 06:57:38;;;;;;;26.73;12.20;;;;;;;-1.71;65.14;100493.34;4779735;30;20275;-84
2022/12/09 07:00:05;;;;;;;29.48;13.70;;;;;;;-1.69;65.19;100464.53;4758239;30;20058;-85
2022/12/09 07:02:33;;;;;;;29.98;13.10;;;;;;;-1.58;64.45;100471.88;4764115;30;20036;-84
2022/12/09 07:05:02;;;;;;;27.45;12.25;;;;;;;-2.53;65.44;100326.72;4753725;30;20151;-85
2022/12/09 07:07:29;;;;;;;25.08;12.10;;;;;;;-2.56;65.66;100303.66;4745712;30;20047;-85
2022/12/09 07:10:12;;;;;;;29.92;12.77;;;;;;;-1.41;65.59;100506.78;4763492;30;20044;-84
2022/12/09 07:13:18;;;;;;;26.88;12.90;;;;;;;-2.05;65.31;100389.53;4769382;30;20050;-87
2022/12/09 07:16:10;;;;;;;27.92;12.50;;;;;;;-1.27;65.50;100486.16;4774579;30;20706;-84
2022/12/09 07:18:52;;;;;;;27.75;12.23;;;;;;;-1.32;65.12;100487.66;4768623;30;20079;-84
2022/12/09 07:21:33;;;;;;;26.15;12.00;;;;;;;-2.57;65.41;100268.78;4768239;30;20039;-85
2022/12/09 07:24:12;;;;;;;27.23;12.48;;;;;;;-2.88;64.50;100257.88;4767886;30;20083;-87
2022/12/09 07:30:57;;;;;;;27.15;12.00;;;;;;;-1.50;65.22;100513.09;4755281;30;20067;-86
2022/12/09 07:34:03;;;;;;;28.90;12.02;;;;;;;-1.45;65.01;100537.22;4760638;30;20068;-87
2022/12/09 07:37:07;;;;;;;27.20;10.93;;;;;;;-1.58;64.47;100517.81;4766948;30;20054;-81
2022/12/09 07:50:05;;;;;;;24.30;11.48;;;;;;;-2.28;64.96;100441.09;4713649;30;20072;-83
2022/12/09 07:53:06;;;;;;;26.70;12.27;;;;;;;-3.54;65.43;100218.69;4717328;30;20075;-85
2022/12/09 07:57:27;;;;;;;24.98;11.15;;;;;;;-2.90;64.65;100340.97;4727592;30;20101;-86
2022/12/09 08:11:51;;;;;;;27.95;10.82;;;;;;;-2.33;64.40;100377.91;5022233;24;20055;-89
2022/12/09 08:19:53;;;;;;;29.42;11.38;;;;;;;-3.41;65.50;100217.69;4707603;30;20057;-85
2022/12/09 08:22:54;;;;;;;35.30;13.43;;;;;;;-2.22;65.59;100414.16;4693282;30;20065;-84
2022/12/09 08:25:42;;;;;;;31.95;12.35;;;;;;;-3.00;64.90;100236.81;4703518;30;20044;-85
2022/12/09 08:28:36;;;;;;;32.50;12.88;;;;;;;-3.08;65.05;100185.50;4714864;30;20052;-86
2022/12/09 08:31:16;;;;;;;27.60;12.57;;;;;;;-2.12;65.47;100361.16;4709362;30;20048;-86
2022/12/09 08:33:53;;;;;;;28.98;12.82;;;;;;;-2.03;65.79;100330.16;4727012;30;20065;-85
2022/12/09 08:36:26;;;;;;;27.98;11.68;;;;;;;-2.51;64.63;100271.63;4721371;30;20093;-87
2022/12/09 08:38:54;;;;;;;27.33;12.48;;;;;;;-2.10;65.69;100302.56;4726332;30;20519;-85
2022/12/09 08:41:34;;;;;;;30.48;12.30;;;;;;;-2.88;65.61;100145.78;4697607;30;20109;-86
2022/12/09 08:44:11;;;;;;;;;;;;;;;-1.31;65.15;100392.31;4741814;30;20052;-86
2022/12/09 08:47:08;;;;;;;24.25;11.75;;;;;;;-1.87;65.12;100308.81;4729048;30;20052;-87
2022/12/09 08:49:35;;;;;;;30.17;12.20;;;;;;;-2.81;64.43;100146.97;4739966;30;20052;-87
2022/12/09 08:52:09;;;;;;;28.02;12.38;;;;;;;-2.16;64.66;100290.41;4756828;30;20060;-87
2022/12/09 08:54:42;;;;;;;27.63;12.15;;;;;;;-2.31;64.89;100264.09;4741089;30;20056;-87
2022/12/09 08:57:43;;;;;;;31.25;12.77;;;;;;;-1.99;65.42;100326.06;4725416;30;20511;-87
2022/12/09 09:09:04;;;;;;;30.17;12.15;;;;;;;-2.40;64.89;100207.56;4666583;30;20129;-89
2022/12/09 09:11:51;;;;;;;29.30;12.90;;;;;;;-2.40;64.62;100231.38;4751028;30;20068;-84
2022/12/09 09:14:19;;;;;;;36.42;13.02;;;;;;;-1.72;65.53;100348.66;4747954;30;20076;-86
2022/12/09 09:16:46;;;;;;;29.75;13.27;;;;;;;-2.60;64.71;100185.38;4755507;30;20460;-85
2022/12/09 09:19:19;;;;;;;28.30;13.30;;;;;;;-2.63;64.61;100141.91;4726799;30;20103;-87
2022/12/09 09:21:45;;;;;;;30.38;13.68;;;;;;;-1.45;65.40;100345.72;4741060;30;20639;-86
2022/12/09 09:24:56;;;;;;;29.25;12.15;;;;;;;-2.17;65.99;100196.84;4746647;30;20047;-85
2022/12/09 09:27:25;;;;;;;25.13;11.75;;;;;;;-1.37;64.57;100339.28;4781625;30;20068;-85
2022/12/09 09:30:22;;;;;;;26.65;12.23;;;;;;;-2.62;64.84;100123.25;4775918;30;20044;-84
2022/12/09 09:32:58;;;;;;;23.98;11.77;;;;;;;-2.53;65.40;100122.84;4771131;30;20092;-84
2022/12/09 09:35:35;;;;;;;24.42;11.45;;;;;;;-2.32;65.70;100127.25;4782333;30;20582;-85
2022/12/09 09:38:06;;;;;;;24.42;10.75;;;;;;;-0.92;63.47;100375.47;4759237;30;20195;-87
2022/12/09 09:40:40;;;;;;;24.10;10.80;;;;;;;-1.42;64.98;100293.13;4772598;30;20043;-86
2022/12/09 09:43:21;;;;;;;26.25;11.10;;;;;;;-1.84;64.91;100219.66;4775076;30;20043;-84
2022/12/09 09:45:58;;;;;;;23.60;9.95;;;;;;;-1.67;63.93;100309.81;4773994;29;20043;-84
2022/12/09 09:48:34;;;;;;;27.73;11.60;;;;;;;-2.20;64.76;100209.44;4740763;30;20036;-86
2022/12/09 09:51:22;;;;;;;21.13;10.77;;;;;;;-2.97;65.49;100053.63;4744826;30;20040;-86
2022/12/09 09:53:56;;;;;;;25.45;11.38;;;;;;;-2.31;65.22;100140.06;4760467;30;20048;-85
2022/12/09 09:56:44;;;;;;;26.25;11.65;;;;;;;-1.00;65.44;100323.16;4767434;29;20069;-84
2022/12/09 09:59:35;;;;;;;28.00;11.73;;;;;;;-1.39;63.28;100274.50;4775953;29;20028;-84
2022/12/09 10:02:10;;;;;;;23.85;11.57;;;;;;;-1.19;64.48;100325.63;4771105;30;20101;-86
2022/12/09 10:05:13;;;;;;;24.40;11.50;;;;;;;-1.18;65.03;100319.72;4764835;30;20075;-88
2022/12/09 10:07:43;;;;;;;24.30;11.27;;;;;;;-1.11;64.70;100297.13;4752848;30;20059;-86
2022/12/09 10:10:53;;;;;;;23.38;10.10;;;;;;;-0.93;64.21;100307.28;4765843;30;20084;-86
2022/12/09 10:13:48;;;;;;;;;;;;;;;;;;;;;
2022/12/09 10:17:14;;;;;;;;;;;;;;;;;;;;;
2022/12/09 10:20:45;;;;;;;21.02;10.35;;;;;;;-1.01;64.86;100317.97;4741167;30;20048;-84
2022/12/09 10:23:15;;;;;;;20.42;9.55;;;;;;;-1.09;64.61;100295.47;4728323;30;20064;-84
2022/12/09 10:25:54;;;;;;;19.73;9.55;;;;;;;-2.00;63.71;100153.41;4767839;30;20530;-85
2022/12/09 10:28:54;;;;;;;16.58;8.20;;;;;;;-2.15;64.12;100171.41;4781556;30;20043;-85
2022/12/09 10:31:25;;;;;;;25.58;10.02;;;;;;;-2.23;64.64;100165.94;4765013;30;20098;-84
2022/12/09 10:34:02;;;;;;;24.02;10.05;;;;;;;-1.57;63.91;100274.53;4781608;30;20123;-85
2022/12/09 10:36:57;;;;;;;20.08;9.90;;;;;;;-2.76;64.05;100078.41;4767652;30;20531;-85
2022/12/09 10:40:00;;;;;;;18.65;8.60;;;;;;;-2.29;62.94;100147.78;4787295;30;20079;-86
2022/12/09 10:43:41;;;;;;;23.13;10.75;;;;;;;-2.58;65.02;100094.59;4793699;29;20027;-86
2022/12/09 10:46:17;;;;;;;22.38;10.00;;;;;;;-1.21;64.49;100290.69;4791522;30;20037;-86
2022/12/09 10:49:02;;;;;;;19.02;8.45;;;;;;;-2.32;63.47;100110.28;4777944;30;20051;-89
2022/12/09 10:52:22;;;;;;;17.95;9.30;;;;;;;-1.98;63.94;100185.84;4789751;30;20052;-86
2022/12/09 10:55:29;;;;;;;21.42;9.57;;;;;;;-2.68;65.03;100018.50;4761400;30;20058;-87
2022/12/09 10:58:32;;;;;;;24.02;9.75;;;;;;;-1.26;64.86;100268.28;4776866;30;20071;-84
2022/12/09 11:01:21;;;;;;;18.35;8.52;;;;;;;-1.18;64.46;100258.41;4771572;30;20115;-85
2022/12/09 11:04:27;;;;;;;;;;;;;;;;;;;;;
2022/12/09 11:07:38;;;;;;;;;;;;;;;;;;;;;
2022/12/09 11:11:02;;;;;;;22.83;10.18;;;;;;;-1.85;65.18;100166.88;4782851;30;20040;-86
2022/12/09 11:13:46;;;;;;;23.60;10.25;;;;;;;-1.66;64.21;100193.28;4760061;30;20038;-84
2022/12/09 11:16:14;;;;;;;22.80;11.18;;;;;;;-2.17;63.87;100122.00;4775178;30;20036;-86
2022/12/09 11:18:56;;;;;;;33.00;11.10;;;;;;;-2.42;64.10;100062.19;4761368;30;20048;-87
2022/12/09 11:21:38;;;;;;;24.20;10.23;;;;;;;-2.30;63.85;100128.19;4760418;30;20091;-83
2022/12/09 11:24:20;;;;;;;22.92;11.02;;;;;;;-3.03;63.15;100004.94;4764114;29;20039;-86
2022/12/09 11:27:15;;;;;;;23.33;10.90;;;;;;;-3.07;64.62;99992.84;4778358;29;20062;-85
2022/12/09 11:29:52;;;;;;;;;;;;;;;;;;;;;
2022/12/09 11:32:20;;;;;;;23.23;10.57;;;;;;;-1.37;64.21;100248.25;4779774;30;20100;-84
2022/12/09 11:34:47;;;;;;;23.15;11.30;;;;;;;-1.59;64.85;100184.25;4762950;30;20066;-85
2022/12/09 11:37:19;;;;;;;26.58;11.43;;;;;;;-2.37;64.33;100042.03;4778298;29;20087;-84
2022/12/09 11:39:49;;;;;;;21.13;10.63;;;;;;;-2.43;63.33;100086.81;4767751;29;20054;-84
2022/12/09 11:42:26;;;;;;;23.40;10.90;;;;;;;-2.31;64.37;100155.38;4772566;30;20085;-84
2022/12/09 11:45:05;;;;;;;27.02;11.32;;;;;;;-2.95;64.65;99974.72;4743772;30;20043;-85
2022/12/09 11:47:57;;;;;;;;;;;;;;;;;;;;;
2022/12/09 11:50:40;;;;;;;23.45;10.65;;;;;;;-1.68;64.03;100258.69;4774124;30;20112;-85
2022/12/09 11:53:30;;;;;;;25.88;11.18;;;;;;;-3.35;64.50;99994.03;4768002;29;20142;-84
2022/12/09 11:59:36;;;;;;;23.23;10.60;;;;;;;-1.64;64.97;100232.50;5024637;24;20059;-88
2022/12/09 12:02:30;;;;;;;23.05;11.38;;;;;;;-2.69;65.10;100066.84;4782563;29;20057;-84
2022/12/09 12:05:49;;;;;;;22.40;10.43;;;;;;;-1.57;64.74;100219.22;4779337;29;20043;-89
2022/12/09 12:08:50;;;;;;;21.88;9.88;;;;;;;-3.18;64.15;99966.84;4791833;29;20496;-86
2022/12/09 12:12:16;;;;;;;21.10;10.27;;;;;;;-1.54;65.13;100216.81;4750464;30;20053;-87
2022/12/09 12:14:47;;;;;;;19.95;10.38;;;;;;;-2.75;64.03;100016.47;4762309;29;20525;-87
2022/12/09 12:17:35;;;;;;;23.38;10.65;;;;;;;-2.47;64.67;100068.75;4761081;30;20051;-84
2022/12/09 12:20:55;;;;;;;21.48;10.80;;;;;;;-2.62;63.87;100085.03;4775027;29;20054;-87
2022/12/09 12:23:47;;;;;;;20.48;9.65;;;;;;;-1.90;64.14;100213.41;4770271;29;20567;-87
2022/12/09 12:26:35;;;;;;;20.40;10.45;;;;;;;-2.99;64.02;100027.19;4773618;30;20069;-84
2022/12/09 12:29:41;;;;;;;19.35;9.95;;;;;;;-2.81;65.15;100026.34;4757567;29;20054;-86
2022/12/09 12:32:20;;;;;;;19.65;9.45;;;;;;;-1.92;63.84;100231.19;4745402;30;20086;-85
2022/12/09 12:40:07;;;;;;;22.05;10.10;;;;;;;-2.06;64.64;100237.28;4850097;24;20548;-88
2022/12/09 12:47:54;;;;;;;25.08;10.52;;;;;;;-3.55;65.68;99988.81;4772090;30;20090;-85
2022/12/09 12:51:37;;;;;;;;;;;;;;;;;;;;;
2022/12/09 12:54:46;;;;;;;22.70;10.63;;;;;;;-2.27;64.68;100227.78;4780760;30;20056;-88
2022/12/09 12:57:33;;;;;;;25.70;12.20;;;;;;;-3.09;65.49;100099.72;4763107;30;20110;-85
2022/12/09 13:00:15;;;;;;;24.75;11.05;;;;;;;-3.54;64.76;100027.84;4766277;30;20092;-86
2022/12/09 13:02:58;;;;;;;30.80;11.48;;;;;;;-3.68;65.33;99989.84;4766240;30;20593;-86
2022/12/09 13:05:52;;;;;;;30.90;12.60;;;;;;;-2.17;65.32;100219.78;4803030;29;20893;-88
2022/12/09 13:08:55;;;;;;;19.45;9.52;;;;;;;-2.06;64.93;100224.53;4792249;29;20054;-86
2022/12/09 13:12:16;;;;;;;21.13;9.82;;;;;;;-2.99;65.27;100090.88;4824990;29;20047;-86